Time;durP1;ratioP1;P1;durP2;ratioP2;P2;SDS_P1;SDS_P2;PMS_P1;PMS_P2;Temp;Humidity;BMP_temperature;BMP_pressure;BME280_temperature;BME280_humidity;BME280_pressure;Samples;Min_cycle;Max_cycle;Signal;HPM_P1;HPM_P2
2022/06/30 00:00:13;;;;;;;3.92;3.55;;;;;;;18.37;73.52;96758.38;5064430;28;20064;-63
2022/06/30 00:02:40;;;;;;;7.72;4.38;;;;;;;18.60;73.62;96834.16;5064421;28;20048;-63
2022/06/30 00:05:08;;;;;;;4.80;3.53;;;;;;;18.70;73.20;96837.97;5064347;28;20131;-64
2022/06/30 00:07:35;;;;;;;8.60;3.97;;;;;;;18.38;73.06;96830.13;5063209;28;20045;-63
2022/06/30 00:10:03;;;;;;;4.75;3.47;;;;;;;18.77;73.73;96866.69;5064277;28;20052;-63
2022/06/30 00:12:29;;;;;;;6.25;4.22;;;;;;;18.76;73.22;96869.94;5064864;28;20059;-62
2022/06/30 00:14:56;;;;;;;5.95;4.38;;;;;;;18.76;73.19;96862.28;5062817;28;20049;-62
2022/06/30 00:17:23;;;;;;;7.20;4.53;;;;;;;17.60;73.72;96692.44;5064759;28;20527;-63
2022/06/30 00:19:49;;;;;;;7.97;4.90;;;;;;;18.12;74.31;96777.66;5064280;28;20049;-62
2022/06/30 00:22:16;;;;;;;7.25;4.07;;;;;;;18.03;74.84;96754.97;5064284;28;20049;-62
2022/06/30 00:24:43;;;;;;;6.35;4.55;;;;;;;17.49;74.80;96689.00;5062800;28;20060;-61
2022/06/30 00:27:11;;;;;;;8.73;6.50;;;;;;;18.07;75.29;96789.34;5064188;28;20068;-62
2022/06/30 00:29:38;;;;;;;7.18;6.40;;;;;;;18.48;74.70;96823.53;5064166;28;20492;-62
2022/06/30 00:32:06;;;;;;;8.77;6.55;;;;;;;18.37;75.19;96806.06;5062497;28;20064;-64
2022/06/30 00:34:32;;;;;;;6.90;4.68;;;;;;;18.63;74.29;96855.72;5064036;28;20052;-62
2022/06/30 00:37:00;;;;;;;7.93;4.45;;;;;;;18.53;74.38;96819.44;5064581;28;20052;-61
2022/06/30 00:39:28;;;;;;;6.65;4.03;;;;;;;18.38;74.57;96804.88;5063957;28;20056;-62
2022/06/30 00:41:55;;;;;;;6.07;4.03;;;;;;;18.68;74.59;96855.25;5066363;28;20067;-61
2022/06/30 00:44:22;;;;;;;6.80;4.75;;;;;;;18.46;74.00;96817.56;5066755;28;20052;-62
2022/06/30 00:46:50;;;;;;;7.03;4.85;;;;;;;18.56;74.56;96844.63;5066263;28;20117;-62
2022/06/30 00:49:18;;;;;;;6.07;3.72;;;;;;;18.62;74.34;96845.72;5066398;28;20056;-62
2022/06/30 00:51:45;;;;;;;5.68;4.03;;;;;;;18.28;73.85;96803.00;5068119;28;20143;-62
2022/06/30 00:54:12;;;;;;;4.53;3.33;;;;;;;18.54;73.74;96861.06;5066152;28;20053;-62
2022/06/30 00:56:46;;;;;;;12.32;3.58;;;;;;;18.26;74.14;96811.06;5066124;28;20502;-62
2022/06/30 00:59:16;;;;;;;5.20;3.90;;;;;;;18.46;74.96;96836.41;5066381;28;20056;-63
2022/06/30 01:01:44;;;;;;;7.30;4.10;;;;;;;18.50;74.92;96843.53;5067322;28;20067;-63
2022/06/30 01:04:12;;;;;;;7.28;5.72;;;;;;;18.51;75.36;96844.34;5067398;28;20048;-62
2022/06/30 01:06:45;;;;;;;9.02;7.70;;;;;;;18.45;76.55;96854.44;5067422;28;20056;-62
2022/06/30 01:12:41;;;;;;;9.98;8.38;;;;;;;18.46;76.25;96848.44;5067134;28;20064;-62
2022/06/30 01:14:48;;;;;;;7.00;5.53;;;;;;;18.19;75.65;96839.22;5067040;28;20518;-63
2022/06/30 01:17:15;;;;;;;9.98;5.07;;;;;;;18.03;76.53;96817.44;5065981;28;20102;-63
2022/06/30 01:19:55;;;;;;;10.55;4.78;;;;;;;17.83;76.35;96779.34;5067474;28;20055;-63
2022/06/30 01:22:22;;;;;;;6.28;4.85;;;;;;;18.21;77.23;96842.38;5067286;28;20048;-63
2022/06/30 01:24:49;;;;;;;11.65;5.28;;;;;;;18.20;77.04;96857.63;5067475;28;20055;-63
2022/06/30 01:27:16;;;;;;;8.52;4.68;;;;;;;17.26;76.05;96691.75;5057609;28;20128;-63
2022/06/30 01:29:43;;;;;;;5.05;3.95;;;;;;;18.13;75.28;96807.25;5080097;28;20083;-63
2022/06/30 01:32:10;;;;;;;7.70;4.25;;;;;;;18.16;74.95;96828.84;5066590;28;20534;-62
2022/06/30 01:34:37;;;;;;;5.45;3.88;;;;;;;18.23;75.57;96845.56;5067141;28;20056;-62
2022/06/30 01:37:05;;;;;;;5.10;3.72;;;;;;;18.15;75.76;96837.69;5066758;28;20147;-63
2022/06/30 01:39:32;;;;;;;5.63;3.50;;;;;;;18.18;75.25;96837.63;5065476;28;20048;-63
2022/06/30 01:41:59;;;;;;;6.75;3.13;;;;;;;17.77;75.72;96800.63;5065520;28;20507;-62
2022/06/30 01:44:26;;;;;;;4.82;3.60;;;;;;;17.89;75.41;96826.06;5064964;28;20053;-62
2022/06/30 01:46:53;;;;;;;7.65;3.97;;;;;;;17.86;75.71;96814.91;5066731;28;20049;-63
2022/06/30 01:49:20;;;;;;;4.65;3.80;;;;;;;18.06;76.03;96852.25;5064996;28;20554;-64
2022/06/30 01:51:47;;;;;;;5.53;3.35;;;;;;;17.98;76.22;96847.94;5064756;28;20081;-63
2022/06/30 01:54:14;;;;;;;6.18;3.63;;;;;;;17.95;77.13;96846.00;5065809;28;20617;-62
2022/06/30 01:56:41;;;;;;;5.10;4.28;;;;;;;17.17;77.43;96728.66;5065201;28;20057;-62
2022/06/30 01:59:08;;;;;;;8.77;4.50;;;;;;;17.68;77.87;96811.56;5065304;28;20057;-62
2022/06/30 02:01:35;;;;;;;7.35;4.57;;;;;;;17.64;77.89;96791.22;5064987;28;20052;-62
2022/06/30 02:06:49;;;;;;;8.93;4.03;;;;;;;17.73;76.72;96816.72;5066094;28;20127;-64
2022/06/30 02:09:16;;;;;;;6.72;4.47;;;;;;;17.79;77.64;96829.03;5065776;28;20515;-63
2022/06/30 02:11:42;;;;;;;5.38;4.22;;;;;;;17.03;77.23;96750.44;5066343;28;20755;-62
2022/06/30 02:14:09;;;;;;;7.35;4.40;;;;;;;17.66;77.87;96816.78;5066308;28;20057;-62
2022/06/30 02:16:36;;;;;;;5.78;4.03;;;;;;;17.81;77.52;96830.16;5064751;28;20056;-63
2022/06/30 02:19:03;;;;;;;6.15;4.13;;;;;;;17.88;78.26;96841.28;5064558;28;20052;-63
2022/06/30 02:21:30;;;;;;;6.18;4.35;;;;;;;17.96;78.02;96850.38;5064038;28;20503;-62
2022/06/30 02:23:57;;;;;;;6.95;4.07;;;;;;;17.88;77.88;96851.69;5065833;28;20053;-62
2022/06/30 02:26:23;;;;;;;8.80;3.78;;;;;;;17.97;77.20;96855.56;5064294;28;20079;-62
2022/06/30 02:28:50;;;;;;;7.85;4.10;;;;;;;17.10;76.51;96711.97;5065923;28;20513;-63
2022/06/30 02:31:17;;;;;;;8.35;3.78;;;;;;;17.91;77.01;96846.03;5064179;28;20542;-63
2022/06/30 02:33:44;;;;;;;5.32;3.85;;;;;;;18.01;76.91;96847.09;5065693;28;20104;-65
2022/06/30 02:36:10;;;;;;;4.43;3.17;;;;;;;16.98;76.55;96709.72;5064121;28;20056;-63
2022/06/30 02:38:37;;;;;;;4.63;3.60;;;;;;;17.14;77.77;96742.69;5065513;28;20102;-63
2022/06/30 02:41:04;;;;;;;5.75;3.53;;;;;;;17.91;77.24;96840.44;5063909;28;20427;-63
2022/06/30 02:43:30;;;;;;;6.95;4.07;;;;;;;18.00;76.75;96851.13;5065499;28;20083;-63
2022/06/30 02:45:57;;;;;;;6.50;4.05;;;;;;;17.93;77.35;96842.81;5065426;28;20056;-62
2022/06/30 02:48:24;;;;;;;5.28;3.95;;;;;;;17.83;78.02;96849.38;5063960;28;20052;-63
2022/06/30 02:50:50;;;;;;;7.53;4.10;;;;;;;17.95;77.20;96848.81;5063615;28;20063;-65
2022/06/30 02:53:17;;;;;;;6.25;4.00;;;;;;;17.95;77.41;96851.59;5065162;28;20048;-62
2022/06/30 02:55:44;;;;;;;7.15;4.22;;;;;;;18.03;76.73;96853.88;5065002;28;20060;-63
2022/06/30 02:58:11;;;;;;;5.35;3.95;;;;;;;18.09;77.11;96857.00;5065504;28;20059;-62
2022/06/30 03:00:37;;;;;;;5.28;3.92;;;;;;;17.68;76.98;96803.16;5063446;28;20056;-63
2022/06/30 03:03:04;;;;;;;8.80;4.28;;;;;;;17.87;77.99;96872.53;5062524;28;20052;-65
2022/06/30 03:05:31;;;;;;;7.70;4.20;;;;;;;17.69;77.35;96835.56;5062860;28;20124;-63
2022/06/30 03:07:57;;;;;;;8.77;3.92;;;;;;;17.93;77.33;96856.84;5063493;28;20064;-63
2022/06/30 03:10:24;;;;;;;6.47;4.38;;;;;;;17.81;77.99;96860.22;5064282;28;20064;-63
2022/06/30 03:12:51;;;;;;;5.93;4.05;;;;;;;17.66;78.51;96836.41;5064703;28;20428;-63
2022/06/30 03:15:18;;;;;;;5.85;4.32;;;;;;;17.60;78.67;96818.47;5063044;28;20045;-62
2022/06/30 03:17:45;;;;;;;11.02;5.20;;;;;;;17.66;79.22;96799.97;5063483;28;20060;-62
2022/06/30 03:20:11;;;;;;;52.95;11.25;;;;;;;17.64;79.73;96838.84;5063031;28;20056;-62
2022/06/30 03:22:38;;;;;;;8.82;4.97;;;;;;;16.50;83.35;96768.63;5063124;28;20063;-62
2022/06/30 03:25:05;;;;;;;12.88;5.57;;;;;;;16.82;84.32;96812.25;5063055;28;20059;-63
2022/06/30 03:27:31;;;;;;;14.52;6.28;;;;;;;17.51;82.10;96877.03;5064648;28;20097;-64
2022/06/30 03:29:58;;;;;;;17.40;7.80;;;;;;;17.60;81.93;96875.31;5064249;28;20052;-62
2022/06/30 03:32:25;;;;;;;9.00;5.28;;;;;;;17.37;82.63;96877.19;5063973;28;20534;-63
2022/06/30 03:34:52;;;;;;;14.32;6.53;;;;;;;16.96;85.61;96882.06;5062524;28;20064;-64
2022/06/30 03:37:19;;;;;;;15.82;7.85;;;;;;;16.97;86.24;96880.84;5062825;28;20048;-62
2022/06/30 03:39:45;;;;;;;6.78;5.07;;;;;;;16.40;87.90;96819.03;5062584;28;20052;-62
2022/06/30 03:42:12;;;;;;;7.72;4.95;;;;;;;17.06;86.20;96839.16;5063662;28;20143;-62
2022/06/30 03:44:39;;;;;;;6.95;4.70;;;;;;;17.58;84.97;96876.94;5064658;28;20049;-63
2022/06/30 03:47:06;;;;;;;6.82;4.25;;;;;;;17.56;83.39;96840.16;5064734;28;20048;-63
2022/06/30 03:49:33;;;;;;;6.88;4.18;;;;;;;17.96;83.06;96881.22;5063988;28;20055;-63
2022/06/30 03:52:00;;;;;;;5.60;4.28;;;;;;;18.22;81.70;96872.00;5064647;28;20142;-62
2022/06/30 03:54:27;;;;;;;4.30;3.67;;;;;;;18.04;78.33;96801.41;5062922;28;20070;-62
2022/06/30 03:56:54;;;;;;;4.72;4.25;;;;;;;18.72;77.31;96864.38;5064461;28;20485;-63
2022/06/30 03:59:21;;;;;;;6.70;4.20;;;;;;;18.41;76.67;96801.22;5063805;28;20499;-62
2022/06/30 04:01:47;;;;;;;14.52;4.82;;;;;;;18.95;77.44;96864.34;5062799;28;20057;-63
2022/06/30 04:04:14;;;;;;;9.10;4.78;;;;;;;18.98;77.88;96868.34;5063031;28;20052;-62
2022/06/30 04:06:41;;;;;;;11.05;5.65;;;;;;;19.15;77.25;96879.22;5063029;28;20493;-62
2022/06/30 04:09:08;;;;;;;12.23;5.93;;;;;;;19.18;77.11;96872.75;5064256;28;20058;-63
2022/06/30 04:11:35;;;;;;;8.20;5.53;;;;;;;19.20;77.59;96887.16;5064113;28;20075;-65
2022/06/30 04:14:01;;;;;;;15.85;5.75;;;;;;;19.37;77.30;96880.44;5066912;28;20044;-61
2022/06/30 04:16:28;;;;;;;13.32;5.32;;;;;;;19.19;76.59;96818.16;5066799;28;20260;-62
2022/06/30 04:18:55;;;;;;;9.65;5.80;;;;;;;19.58;76.36;96868.72;5066929;28;20415;-62
2022/06/30 04:21:22;;;;;;;10.98;5.15;;;;;;;19.58;75.63;96839.06;5068312;28;20506;-63
2022/06/30 04:23:48;;;;;;;15.32;5.95;;;;;;;19.75;73.59;96849.91;5068191;28;20059;-62
2022/06/30 04:26:15;;;;;;;8.73;4.80;;;;;;;19.69;72.59;96829.19;5067748;28;20051;-62
2022/06/30 04:28:42;;;;;;;10.80;5.60;;;;;;;20.21;71.40;96888.28;5066839;28;20063;-62
2022/06/30 04:33:54;;;;;;;14.57;7.55;;;;;;;19.10;73.93;96792.69;5068019;28;20131;-61
2022/06/30 04:36:21;;;;;;;10.18;6.10;;;;;;;20.02;75.67;96897.50;5067509;28;20166;-65
2022/06/30 04:38:48;;;;;;;7.32;4.97;;;;;;;19.07;75.66;96747.81;5066431;28;20071;-63
2022/06/30 04:41:27;;;;;;;16.42;6.57;;;;;;;19.34;80.31;96858.81;5067422;28;20044;-61
2022/06/30 04:43:58;;;;;;;11.57;8.48;;;;;;;19.45;80.02;96898.72;5067714;28;20048;-61
2022/06/30 04:46:25;;;;;;;5.90;5.13;;;;;;;19.46;77.71;96860.97;5066163;28;20056;-62
2022/06/30 04:48:53;;;;;;;7.68;4.95;;;;;;;19.32;76.47;96770.56;5066125;28;20060;-63
2022/06/30 04:51:20;;;;;;;8.65;5.55;;;;;;;20.24;74.82;96893.81;5067593;28;20075;-64
2022/06/30 04:53:47;;;;;;;8.55;5.60;;;;;;;20.36;73.11;96869.84;5067307;28;20060;-63
2022/06/30 04:56:14;;;;;;;8.95;5.20;;;;;;;20.79;71.39;96901.31;5067644;28;20072;-63
2022/06/30 04:58:41;;;;;;;9.13;5.22;;;;;;;20.53;69.54;96815.13;5067352;28;20101;-63
2022/06/30 05:01:08;;;;;;;7.97;5.57;;;;;;;21.02;69.02;96846.84;5066006;28;20059;-62
2022/06/30 05:03:36;;;;;;;12.57;7.25;;;;;;;21.53;68.17;96899.38;5067421;28;20056;-64
2022/06/30 05:06:07;;;;;;;15.05;6.30;;;;;;;20.82;66.77;96776.53;5067457;28;20068;-62
2022/06/30 05:08:34;;;;;;;8.30;5.10;;;;;;;21.56;66.30;96887.97;5067030;28;20064;-63
2022/06/30 05:11:01;;;;;;;10.75;5.50;;;;;;;20.89;65.92;96770.72;5067098;28;20063;-64
2022/06/30 05:13:28;;;;;;;6.10;4.60;;;;;;;21.79;65.39;96856.72;5067444;28;20455;-62
2022/06/30 05:15:55;;;;;;;6.68;5.47;;;;;;;20.95;65.44;96695.72;5066846;28;20522;-62
2022/06/30 05:18:24;;;;;;;9.68;5.35;;;;;;;22.37;64.49;96875.06;5067628;28;20487;-62
2022/06/30 05:20:51;;;;;;;10.73;5.85;;;;;;;22.34;65.98;96921.13;5066605;28;20048;-64
2022/06/30 05:23:17;;;;;;;9.93;5.82;;;;;;;22.33;64.06;96873.59;5067286;28;20071;-62
2022/06/30 05:28:29;;;;;;;14.27;5.70;;;;;;;23.02;60.93;96909.25;5066729;28;20149;-61
2022/06/30 05:30:56;;;;;;;8.13;5.82;;;;;;;22.99;59.72;96881.91;5066647;28;20068;-64
2022/06/30 05:33:23;;;;;;;13.93;5.85;;;;;;;22.84;59.46;96846.13;5065498;28;20486;-62
2022/06/30 05:35:52;;;;;;;10.40;6.05;;;;;;;23.45;59.50;96917.06;5066573;28;20056;-62
2022/06/30 05:38:20;;;;;;;9.55;6.15;;;;;;;23.29;58.75;96843.72;5065045;28;20384;-63
2022/06/30 05:40:47;;;;;;;10.77;6.78;;;;;;;23.70;58.27;96886.63;5066065;28;20052;-62
2022/06/30 05:43:15;;;;;;;5.78;5.18;;;;;;;23.86;56.26;96877.94;5065224;28;20189;-62
2022/06/30 05:45:45;;;;;;;6.97;5.95;;;;;;;24.31;55.03;96911.38;5065098;28;20048;-63
2022/06/30 05:48:12;;;;;;;10.43;5.63;;;;;;;24.44;54.46;96917.75;5065152;28;20048;-64
2022/06/30 05:50:39;;;;;;;10.63;5.63;;;;;;;24.74;54.26;96925.47;5066411;28;20056;-62
2022/06/30 05:53:05;;;;;;;13.02;7.22;;;;;;;24.26;52.41;96810.09;5064809;28;20052;-63
2022/06/30 05:55:32;;;;;;;10.18;6.00;;;;;;;24.51;52.25;96804.19;5064211;28;20063;-63
2022/06/30 05:58:05;;;;;;;7.05;5.70;;;;;;;25.03;51.98;96920.22;5065086;28;20044;-62
2022/06/30 06:00:33;;;;;;;9.45;5.30;;;;;;;25.29;51.57;96921.53;5065898;28;20488;-63
2022/06/30 06:03:00;;;;;;;5.43;4.63;;;;;;;24.59;50.85;96765.81;5064945;28;20056;-62
2022/06/30 06:05:27;;;;;;;5.95;5.10;;;;;;;25.56;50.36;96898.09;5064475;28;20448;-64
2022/06/30 06:07:53;;;;;;;5.53;5.03;;;;;;;25.57;49.19;96899.69;5066232;28;20064;-65
2022/06/30 06:10:20;;;;;;;9.20;5.30;;;;;;;25.37;47.10;96864.53;5066082;28;20545;-64
2022/06/30 06:12:47;;;;;;;8.18;4.95;;;;;;;24.78;48.00;96829.78;5066112;28;20556;-63
2022/06/30 06:15:15;;;;;;;5.45;4.82;;;;;;;25.30;47.87;96883.41;5064327;28;20059;-63
2022/06/30 06:17:47;;;;;;;5.80;5.22;;;;;;;25.28;48.57;96834.88;5064350;28;20060;-63
2022/06/30 06:20:16;;;;;;;6.32;5.00;;;;;;;26.11;47.69;96930.91;5065523;28;20072;-64
2022/06/30 06:22:43;;;;;;;5.10;4.47;;;;;;;26.34;46.62;96921.69;5065345;28;20060;-63
2022/06/30 06:25:10;;;;;;;6.35;4.95;;;;;;;26.56;46.37;96927.13;5063579;28;20501;-65
2022/06/30 06:27:38;;;;;;;5.45;4.65;;;;;;;26.50;44.97;96923.38;5065384;28;20056;-64
2022/06/30 06:30:07;;;;;;;7.65;4.25;;;;;;;26.20;44.14;96864.75;5065338;28;20570;-63
2022/06/30 06:32:34;;;;;;;9.00;5.88;;;;;;;26.48;42.83;96878.38;5064370;28;20060;-63
2022/06/30 06:35:01;;;;;;;5.72;4.70;;;;;;;26.09;43.30;96831.19;5065387;28;20110;-64
2022/06/30 06:37:36;;;;;;;5.18;4.57;;;;;;;26.80;43.76;96913.00;5065291;28;20044;-63
2022/06/30 06:40:03;;;;;;;7.07;4.60;;;;;;;26.66;44.27;96846.28;5065225;28;20057;-65
2022/06/30 06:42:29;;;;;;;9.73;4.90;;;;;;;26.99;44.74;96875.47;5064680;28;20063;-64
2022/06/30 06:44:56;;;;;;;7.53;5.00;;;;;;;27.54;44.85;96901.53;5064898;28;20059;-62
2022/06/30 06:47:23;;;;;;;9.45;4.90;;;;;;;27.67;43.61;96891.47;5064795;28;20056;-66
2022/06/30 06:49:49;;;;;;;7.00;5.28;;;;;;;27.22;43.28;96840.56;5064545;28;20511;-63
2022/06/30 06:52:16;;;;;;;13.32;5.57;;;;;;;27.17;44.76;96889.59;5064800;28;20420;-63
2022/06/30 06:54:43;;;;;;;9.02;5.47;;;;;;;27.07;44.59;96888.06;5064424;28;20063;-63
2022/06/30 06:57:09;;;;;;;6.22;5.25;;;;;;;27.30;44.61;96895.09;5064689;28;20407;-62
2022/06/30 06:59:37;;;;;;;8.15;5.28;;;;;;;27.60;43.81;96885.38;5064739;28;20131;-64
2022/06/30 07:02:04;;;;;;;9.05;6.13;;;;;;;27.18;44.15;96851.34;5064481;28;20062;-64
2022/06/30 07:04:31;;;;;;;6.93;5.68;;;;;;;26.98;44.69;96839.81;5064756;28;20048;-64
2022/06/30 07:06:58;;;;;;;11.05;5.68;;;;;;;27.01;44.30;96787.66;5064258;28;20067;-64
2022/06/30 07:09:24;;;;;;;6.75;6.00;;;;;;;27.50;44.88;96863.94;5064254;28;20530;-64
2022/06/30 07:11:52;;;;;;;7.38;5.50;;;;;;;27.87;44.87;96891.59;5064629;28;20053;-63
2022/06/30 07:14:18;;;;;;;6.10;5.10;;;;;;;27.98;44.15;96894.69;5064948;28;20048;-62
2022/06/30 07:16:45;;;;;;;11.15;5.75;;;;;;;26.91;45.06;96739.84;5064644;28;20044;-62
2022/06/30 07:19:13;;;;;;;6.18;5.28;;;;;;;28.09;45.18;96865.59;5064489;28;20052;-63
2022/06/30 07:21:42;;;;;;;7.38;5.82;;;;;;;28.42;44.00;96882.53;5064146;28;20056;-64
2022/06/30 07:24:09;;;;;;;6.32;5.35;;;;;;;27.49;44.07;96728.63;5062671;28;20056;-63
2022/06/30 07:26:36;;;;;;;8.32;6.45;;;;;;;28.38;43.63;96834.25;5063923;28;20049;-62
2022/06/30 07:29:03;;;;;;;7.82;6.07;;;;;;;27.38;44.92;96709.25;5062735;28;20064;-62
2022/06/30 07:31:30;;;;;;;8.18;5.60;;;;;;;27.72;45.13;96841.59;5061786;28;20056;-63
2022/06/30 07:33:57;;;;;;;7.90;5.43;;;;;;;27.86;44.84;96800.97;5062997;28;20052;-62
2022/06/30 07:36:24;;;;;;;8.10;5.95;;;;;;;28.35;44.25;96837.31;5063784;28;20415;-62
2022/06/30 07:38:51;;;;;;;11.23;6.50;;;;;;;27.52;45.08;96736.94;5062627;28;20464;-63
2022/06/30 07:41:18;;;;;;;7.35;5.97;;;;;;;28.55;44.81;96880.19;5062494;28;20554;-63
2022/06/30 07:43:45;;;;;;;6.78;5.57;;;;;;;28.60;44.37;96879.47;5063960;28;20067;-65
2022/06/30 07:46:14;;;;;;;6.18;5.57;;;;;;;28.80;44.02;96868.13;5062164;28;20060;-63
2022/06/30 07:48:42;;;;;;;6.03;4.90;;;;;;;28.77;43.07;96821.41;5063375;28;20541;-63
2022/06/30 07:51:09;;;;;;;10.05;6.05;;;;;;;28.98;43.38;96857.25;5064001;28;20513;-63
2022/06/30 07:53:36;;;;;;;6.53;5.80;;;;;;;28.85;43.19;96841.78;5062051;28;20621;-65
2022/06/30 07:56:03;;;;;;;5.72;5.00;;;;;;;28.81;43.21;96795.56;5063963;28;20079;-65
2022/06/30 07:58:30;;;;;;;6.45;5.30;;;;;;;29.06;43.22;96838.47;5063498;28;20056;-63
2022/06/30 08:00:57;;;;;;;6.63;5.20;;;;;;;29.00;43.10;96825.38;5063682;28;20049;-64
2022/06/30 08:03:24;;;;;;;7.70;5.60;;;;;;;29.24;42.19;96845.97;5062318;28;20130;-62
2022/06/30 08:05:51;;;;;;;5.85;5.35;;;;;;;29.26;43.89;96837.69;5061940;28;20048;-62
2022/06/30 08:08:18;;;;;;;7.10;5.07;;;;;;;29.62;43.41;96864.88;5063708;28;20053;-65
2022/06/30 08:10:45;;;;;;;9.45;7.75;;;;;;;29.62;43.47;96868.53;5061827;28;20052;-62
2022/06/30 08:13:12;;;;;;;6.63;5.57;;;;;;;29.70;42.28;96878.25;5063421;28;20140;-62
2022/06/30 08:15:38;;;;;;;7.70;6.05;;;;;;;29.95;42.91;96883.22;5063604;28;20044;-62
2022/06/30 08:18:06;;;;;;;7.25;6.40;;;;;;;30.31;41.15;96882.56;5063443;28;20154;-61
2022/06/30 08:20:34;;;;;;;7.20;5.53;;;;;;;29.77;42.00;96866.38;5061563;28;20515;-63
2022/06/30 08:23:01;;;;;;;6.80;5.28;;;;;;;30.16;39.52;96870.41;5062155;28;20063;-63
2022/06/30 08:25:28;;;;;;;10.60;6.15;;;;;;;29.96;40.40;96861.13;5061910;28;20052;-62
2022/06/30 08:27:54;;;;;;;7.55;6.35;;;;;;;29.85;41.13;96856.06;5062037;28;20052;-63
2022/06/30 08:30:23;;;;;;;7.85;5.53;;;;;;;30.48;41.93;96874.13;5061660;28;20049;-63
2022/06/30 08:32:49;;;;;;;6.20;5.60;;;;;;;30.80;40.18;96873.66;5062792;28;20064;-64
2022/06/30 08:35:16;;;;;;;7.35;5.68;;;;;;;31.00;40.37;96874.84;5063262;28;20075;-64
2022/06/30 08:38:01;;;;;;;6.35;5.72;;;;;;;30.56;40.32;96863.78;5063252;28;20053;-62
2022/06/30 08:43:14;;;;;;;6.82;5.47;;;;;;;30.09;41.45;96848.03;5043713;28;20049;-62
2022/06/30 08:45:43;;;;;;;9.25;5.90;;;;;;;30.18;41.13;96873.56;5058478;28;20087;-63
2022/06/30 08:48:10;;;;;;;8.52;7.60;;;;;;;30.16;41.37;96824.69;5041361;28;20116;-62
2022/06/30 08:50:38;;;;;;;13.60;6.22;;;;;;;30.28;40.54;96814.97;5041431;28;20056;-63
2022/06/30 08:53:16;;;;;;;7.00;5.70;;;;;;;30.28;39.93;96865.63;5043016;28;20076;-63
2022/06/30 08:55:42;;;;;;;6.95;5.32;;;;;;;30.38;40.02;96842.06;5041889;28;20201;-62
2022/06/30 08:58:10;;;;;;;7.72;6.50;;;;;;;30.27;39.32;96864.84;5041968;28;20053;-62
2022/06/30 09:00:38;;;;;;;8.25;6.35;;;;;;;30.39;41.43;96863.66;5059787;28;20069;-65
2022/06/30 09:03:05;;;;;;;7.13;5.95;;;;;;;29.45;39.29;96696.22;5046976;28;20052;-64
2022/06/30 09:05:32;;;;;;;7.70;6.82;;;;;;;30.20;39.57;96836.69;5046620;28;20068;-64
2022/06/30 09:07:59;;;;;;;9.68;6.38;;;;;;;30.29;39.88;96813.66;5047298;28;20052;-64
2022/06/30 09:10:48;;;;;;;17.92;9.15;;;;;;;31.02;38.37;96877.94;5059219;28;20056;-64
2022/06/30 09:13:15;;;;;;;8.63;5.95;;;;;;;31.29;37.93;96860.16;5045759;28;20104;-63
2022/06/30 09:15:42;;;;;;;9.45;5.95;;;;;;;31.20;38.53;96832.53;5062049;28;20076;-65
2022/06/30 09:18:24;;;;;;;11.68;6.65;;;;;;;31.43;38.11;96862.06;5035924;28;20060;-64
2022/06/30 09:20:51;;;;;;;15.80;9.90;;;;;;;32.01;36.97;96855.56;5045298;28;20056;-64
2022/06/30 09:23:25;;;;;;;11.30;8.40;;;;;;;31.51;37.64;96743.66;5046574;28;20049;-65
2022/06/30 09:25:54;;;;;;;16.10;9.85;;;;;;;32.14;36.36;96830.00;5046809;28;20148;-64
2022/06/30 09:28:43;;;;;;;8.65;6.88;;;;;;;32.41;35.04;96846.50;5045075;28;20139;-64
2022/06/30 09:31:31;;;;;;;13.38;8.85;;;;;;;32.40;34.25;96842.06;5045993;28;20780;-65
2022/06/30 09:34:19;;;;;;;8.60;6.50;;;;;;;32.44;34.97;96836.84;5045153;28;20132;-64
2022/06/30 09:36:48;;;;;;;22.90;11.02;;;;;;;31.81;34.78;96715.31;5046589;28;20533;-64
2022/06/30 09:39:17;;;;;;;8.35;6.07;;;;;;;32.15;34.60;96814.41;5061755;28;20044;-65
2022/06/30 09:41:47;;;;;;;6.97;6.38;;;;;;;31.65;34.87;96787.69;5054104;28;20122;-65
2022/06/30 09:44:21;;;;;;;6.80;6.15;;;;;;;32.51;33.92;96833.47;5064218;28;20071;-65
2022/06/30 09:46:57;;;;;;;6.78;5.80;;;;;;;32.91;32.29;96835.03;5064590;28;20052;-65
2022/06/30 09:49:32;;;;;;;10.55;6.32;;;;;;;32.52;33.20;96780.53;5066026;28;20136;-64
2022/06/30 09:52:04;;;;;;;6.50;5.75;;;;;;;32.39;33.07;96768.78;5066158;28;20491;-65
2022/06/30 09:54:34;;;;;;;7.50;5.57;;;;;;;32.86;32.43;96816.50;5056179;28;20052;-66
2022/06/30 09:57:06;;;;;;;9.77;6.43;;;;;;;33.36;32.12;96831.53;5063779;28;20061;-65
2022/06/30 09:59:36;;;;;;;7.47;5.60;;;;;;;32.15;33.12;96800.06;5065118;28;20071;-65
2022/06/30 10:02:06;;;;;;;6.13;5.53;;;;;;;32.81;33.20;96825.88;5064090;28;20048;-64
2022/06/30 10:04:54;;;;;;;6.25;5.60;;;;;;;33.13;33.27;96807.06;5063997;28;20062;-64
2022/06/30 10:07:22;;;;;;;7.25;6.10;;;;;;;33.02;32.39;96795.59;5065979;28;20080;-63
2022/06/30 10:09:50;;;;;;;7.22;6.53;;;;;;;33.18;32.34;96791.88;5064912;28;20538;-66
2022/06/30 10:12:22;;;;;;;6.57;5.85;;;;;;;32.82;32.44;96718.38;5063503;28;20052;-65
2022/06/30 10:14:52;;;;;;;6.07;5.57;;;;;;;33.73;32.40;96823.28;5064020;28;20048;-65
2022/06/30 10:17:26;;;;;;;5.43;4.97;;;;;;;33.84;32.05;96815.91;5064756;28;20056;-65
2022/06/30 10:19:53;;;;;;;;;;;;;;;33.74;32.09;96815.44;5065992;28;20056;-67
2022/06/30 10:22:22;;;;;;;5.32;4.80;;;;;;;31.68;33.09;96775.97;5065742;28;20414;-65
2022/06/30 10:24:52;;;;;;;6.18;5.57;;;;;;;32.33;33.22;96805.28;5065418;28;20052;-65
2022/06/30 10:27:20;;;;;;;6.65;5.45;;;;;;;32.13;33.95;96817.78;5064221;28;20052;-65
2022/06/30 10:30:00;;;;;;;6.63;5.97;;;;;;;31.60;33.96;96814.25;5063703;28;20086;-65
2022/06/30 10:32:45;;;;;;;7.13;5.40;;;;;;;32.03;32.99;96807.06;5064886;28;20056;-65
2022/06/30 10:35:24;;;;;;;9.02;5.15;;;;;;;32.45;32.65;96809.75;5065317;28;20539;-65
2022/06/30 10:37:58;;;;;;;8.13;6.75;;;;;;;32.82;33.65;96798.75;5065394;28;20052;-66
2022/06/30 10:40:52;;;;;;;8.23;6.00;;;;;;;32.22;33.81;96790.94;5063640;28;20524;-65
2022/06/30 10:43:19;;;;;;;6.13;5.53;;;;;;;32.46;33.02;96790.44;5065582;28;20506;-66
2022/06/30 10:46:02;;;;;;;6.50;5.90;;;;;;;32.31;33.15;96744.81;5064880;28;20071;-63
2022/06/30 10:49:08;;;;;;;7.28;5.72;;;;;;;32.47;33.78;96792.78;5064896;28;20076;-64
2022/06/30 10:51:35;;;;;;;6.05;5.55;;;;;;;32.50;33.15;96786.00;5033146;28;20064;-66
2022/06/30 10:54:02;;;;;;;6.00;5.38;;;;;;;31.72;32.82;96753.59;5064702;28;20048;-64
2022/06/30 10:57:02;;;;;;;6.22;4.85;;;;;;;32.56;32.78;96781.06;5063161;28;20060;-65
2022/06/30 10:59:42;;;;;;;6.00;5.40;;;;;;;33.09;31.93;96751.97;5041501;28;20051;-64
2022/06/30 11:02:25;;;;;;;9.52;5.63;;;;;;;33.77;32.01;96782.00;5063600;28;20075;-64
2022/06/30 11:05:23;;;;;;;8.18;6.13;;;;;;;34.09;31.05;96766.63;5063201;28;20071;-64
2022/06/30 11:07:49;;;;;;;6.00;5.38;;;;;;;33.78;30.92;96714.56;5063195;28;20135;-65
2022/06/30 11:10:17;;;;;;;6.35;5.38;;;;;;;33.74;30.35;96665.97;5064202;28;20407;-64
2022/06/30 11:12:46;;;;;;;8.88;6.32;;;;;;;34.44;31.46;96774.47;5064168;28;20052;-65
2022/06/30 11:15:14;;;;;;;5.97;5.38;;;;;;;34.61;31.53;96778.00;5062632;28;20044;-64
2022/06/30 11:17:41;;;;;;;5.75;5.32;;;;;;;34.27;31.04;96708.44;5064509;28;20071;-65
2022/06/30 11:20:14;;;;;;;;;;;;;;;35.04;29.97;96776.00;5063213;28;20063;-64
2022/06/30 11:22:43;;;;;;;7.45;5.60;;;;;;;34.84;30.45;96750.56;5063767;28;20015;-64
2022/06/30 11:27:17;;;;;;;5.80;4.72;;;;;;;35.02;30.30;96738.31;5062689;28;20040;-65
2022/06/30 11:28:06;;;;;;;5.85;5.35;;;;;;;35.31;30.36;96743.22;5064025;28;20058;-65
2022/06/30 11:30:34;;;;;;;5.45;4.88;;;;;;;35.40;29.47;96751.50;5063885;28;20049;-66
2022/06/30 11:33:01;;;;;;;6.55;5.05;;;;;;;34.68;29.90;96663.03;5063763;28;20071;-65
2022/06/30 11:35:28;;;;;;;6.78;5.72;;;;;;;34.84;29.75;96724.66;5063498;28;20862;-65
2022/06/30 11:37:56;;;;;;;5.38;5.03;;;;;;;34.77;29.37;96717.38;5062513;28;20068;-66
2022/06/30 11:40:23;;;;;;;5.45;4.90;;;;;;;35.24;29.33;96775.50;5063440;28;20052;-65
2022/06/30 11:42:51;;;;;;;5.28;4.88;;;;;;;35.42;29.44;96771.91;5062367;28;20499;-64
2022/06/30 11:45:19;;;;;;;5.80;5.38;;;;;;;35.13;29.47;96727.47;5064027;28;20067;-63
2022/06/30 11:47:59;;;;;;;6.30;5.72;;;;;;;35.39;28.73;96770.13;5064125;28;20059;-64
2022/06/30 11:50:26;;;;;;;5.90;5.40;;;;;;;34.93;29.82;96776.13;5064132;28;20052;-65
2022/06/30 11:52:57;;;;;;;7.68;5.55;;;;;;;35.27;29.52;96748.47;5063786;28;20522;-66